Time;durP1;ratioP1;P1;durP2;ratioP2;P2;SDS_P1;SDS_P2;PMS_P1;PMS_P2;Temp;Humidity;BMP_temperature;BMP_pressure;BME280_temperature;BME280_humidity;BME280_pressure;Samples;Min_cycle;Max_cycle;Signal;HPM_P1;HPM_P2
2021/10/27 00:00:28;;;;;;;0.30;0.20;;;20.30;67.90;;;;;;5103230;28;20035;-36
2021/10/27 00:02:54;;;;;;;0.82;0.20;;;20.30;68.00;;;;;;5102884;28;20040;-36
2021/10/27 00:05:21;;;;;;;1.38;0.10;;;20.30;67.90;;;;;;5102322;28;20032;-36
2021/10/27 00:07:47;;;;;;;0.43;0.20;;;20.30;67.90;;;;;;5100991;28;20128;-36
2021/10/27 00:10:13;;;;;;;1.25;0.10;;;20.30;67.90;;;;;;5099053;28;20044;-36
2021/10/27 00:12:39;;;;;;;0.90;0.20;;;20.30;67.80;;;;;;5103148;28;20032;-36
2021/10/27 00:15:06;;;;;;;0.20;0.10;;;20.30;68.00;;;;;;5102689;28;20066;-36
2021/10/27 00:17:33;;;;;;;0.77;0.20;;;20.20;67.80;;;;;;5102619;28;20028;-36
2021/10/27 00:20:00;;;;;;;0.20;0.20;;;20.20;67.70;;;;;;5087104;28;20092;-36
2021/10/27 00:22:26;;;;;;;0.30;0.13;;;20.20;67.80;;;;;;5094365;28;20028;-36
2021/10/27 00:24:52;;;;;;;0.98;0.10;;;20.20;67.90;;;;;;5102725;28;20036;-36
2021/10/27 00:27:18;;;;;;;1.45;0.20;;;20.20;67.80;;;;;;5104172;28;20028;-36
2021/10/27 00:29:45;;;;;;;0.65;0.20;;;20.20;67.90;;;;;;5106703;28;20039;-36
2021/10/27 00:32:11;;;;;;;0.20;0.10;;;20.20;67.90;;;;;;5105384;28;20031;-36
2021/10/27 00:34:37;;;;;;;0.50;0.10;;;20.10;67.80;;;;;;5106644;28;20028;-36
2021/10/27 00:37:03;;;;;;;0.10;0.10;;;20.10;67.90;;;;;;5106053;28;20100;-36
2021/10/27 00:39:30;;;;;;;0.77;0.20;;;20.10;68.00;;;;;;5106671;28;20265;-36
2021/10/27 00:41:56;;;;;;;1.02;0.10;;;20.10;68.00;;;;;;5104064;28;20035;-36
2021/10/27 00:44:23;;;;;;;0.17;0.17;;;20.10;68.00;;;;;;5086413;28;20101;-36
2021/10/27 00:47:06;;;;;;;0.20;0.10;;;20.10;67.90;;;;;;5084541;28;20032;-36
2021/10/27 00:49:34;;;;;;;0.20;0.10;;;20.00;67.90;;;;;;5097874;28;20110;-36
2021/10/27 00:52:00;;;;;;;;;;;20.00;67.90;;;;;;5106930;28;20039;-36
2021/10/27 00:54:26;;;;;;;0.47;0.10;;;20.00;67.90;;;;;;5106474;28;19967;-36
2021/10/27 00:56:53;;;;;;;0.27;0.17;;;20.00;68.00;;;;;;5105855;28;20040;-37
2021/10/27 00:59:20;;;;;;;0.30;0.20;;;20.00;68.00;;;;;;5106267;28;20263;-36
2021/10/27 01:01:47;;;;;;;;;;;20.00;67.90;;;;;;5106694;28;20039;-36
2021/10/27 01:04:13;;;;;;;0.20;0.20;;;19.90;67.90;;;;;;5106145;28;19907;-36
2021/10/27 01:06:39;;;;;;;0.20;0.15;;;19.90;68.00;;;;;;5105724;28;20034;-36
2021/10/27 01:09:06;;;;;;;0.27;0.10;;;19.90;68.00;;;;;;5105615;28;20412;-36
2021/10/27 01:11:32;;;;;;;0.38;0.20;;;19.90;68.00;;;;;;5106086;28;20264;-36
2021/10/27 01:13:58;;;;;;;0.20;0.15;;;19.90;68.00;;;;;;5106022;28;20401;-36
2021/10/27 01:16:25;;;;;;;0.20;0.20;;;19.90;68.10;;;;;;5105812;28;20100;-36
2021/10/27 01:18:53;;;;;;;0.30;0.10;;;19.90;68.10;;;;;;5105414;28;20032;-36
2021/10/27 01:21:23;;;;;;;1.10;0.30;;;19.80;68.10;;;;;;5105051;28;20027;-36
2021/10/27 01:23:49;;;;;;;0.30;0.17;;;19.80;68.20;;;;;;5087698;28;20024;-36
2021/10/27 01:26:16;;;;;;;0.20;0.20;;;19.80;68.20;;;;;;5105990;28;20115;-36
2021/10/27 01:28:42;;;;;;;0.20;0.17;;;19.80;68.20;;;;;;5105412;28;20049;-37
2021/10/27 01:31:09;;;;;;;0.30;0.10;;;19.80;68.30;;;;;;5105657;28;20032;-36
2021/10/27 01:33:35;;;;;;;0.20;0.10;;;19.80;68.30;;;;;;5105527;28;20106;-36
2021/10/27 01:36:02;;;;;;;1.00;0.20;;;19.80;68.30;;;;;;5104607;28;20100;-36
2021/10/27 01:38:28;;;;;;;0.63;0.30;;;19.80;68.30;;;;;;5104133;28;20417;-36
2021/10/27 01:40:54;;;;;;;0.20;0.10;;;19.70;68.30;;;;;;5105633;28;20028;-36
2021/10/27 01:43:20;;;;;;;0.20;0.17;;;19.70;68.30;;;;;;5105514;28;20103;-36
2021/10/27 01:45:47;;;;;;;0.77;0.20;;;19.70;68.40;;;;;;5105237;28;20020;-36
2021/10/27 01:48:13;;;;;;;1.30;0.22;;;19.70;68.40;;;;;;5104688;28;20088;-36
2021/10/27 01:50:40;;;;;;;0.30;0.10;;;19.70;68.40;;;;;;5105198;28;20028;-36
2021/10/27 01:53:06;;;;;;;1.35;0.20;;;19.70;68.40;;;;;;5105041;28;20028;-36
2021/10/27 01:55:32;;;;;;;1.17;0.20;;;19.70;68.50;;;;;;5103520;28;20040;-36
2021/10/27 01:57:58;;;;;;;0.40;0.15;;;19.60;68.40;;;;;;5104301;28;20023;-36
2021/10/27 02:00:24;;;;;;;0.22;0.17;;;19.60;68.40;;;;;;5084881;28;20140;-36
2021/10/27 02:02:50;;;;;;;0.52;0.20;;;19.60;68.50;;;;;;5084786;28;20032;-36
2021/10/27 02:05:16;;;;;;;0.22;0.10;;;19.60;68.40;;;;;;5089330;28;20023;-36
2021/10/27 02:07:43;;;;;;;0.65;0.20;;;19.60;68.60;;;;;;5104620;28;20036;-36
2021/10/27 02:10:09;;;;;;;0.20;0.10;;;19.60;68.50;;;;;;5104370;28;20040;-36
2021/10/27 02:12:37;;;;;;;0.73;0.10;;;19.50;68.50;;;;;;5105007;28;20024;-37
2021/10/27 02:15:03;;;;;;;0.22;0.15;;;19.60;68.60;;;;;;5104734;28;20040;-36
2021/10/27 02:17:29;;;;;;;0.28;0.20;;;19.50;68.60;;;;;;5101337;28;20024;-36
2021/10/27 02:19:56;;;;;;;0.45;0.10;;;19.50;68.60;;;;;;5103314;28;20039;-36
2021/10/27 02:22:22;;;;;;;0.30;0.10;;;19.50;68.60;;;;;;5104700;28;20032;-36
2021/10/27 02:24:48;;;;;;;0.38;0.10;;;19.50;68.60;;;;;;5104549;28;20028;-36
2021/10/27 02:27:15;;;;;;;0.10;0.10;;;19.40;68.50;;;;;;5104547;28;20016;-36
2021/10/27 02:29:41;;;;;;;0.20;0.20;;;19.40;68.60;;;;;;5104238;28;20028;-36
2021/10/27 02:32:08;;;;;;;0.17;0.10;;;19.40;68.60;;;;;;5104480;28;20039;-36
2021/10/27 02:34:34;;;;;;;0.10;0.10;;;19.40;68.60;;;;;;5104523;28;20036;-36
2021/10/27 02:37:00;;;;;;;0.40;0.10;;;19.40;68.70;;;;;;5103992;28;20048;-36
2021/10/27 02:39:27;;;;;;;0.23;0.17;;;19.40;68.70;;;;;;5102815;28;20037;-36
2021/10/27 02:41:53;;;;;;;0.20;0.15;;;19.30;68.60;;;;;;5104124;28;20084;-36
2021/10/27 02:44:19;;;;;;;0.57;0.20;;;19.30;68.60;;;;;;5104524;28;20358;-36
2021/10/27 02:46:46;;;;;;;0.17;0.10;;;19.30;68.50;;;;;;5104393;28;20065;-36
2021/10/27 02:49:13;;;;;;;0.28;0.13;;;19.30;68.50;;;;;;5103664;28;20108;-36
2021/10/27 02:51:39;;;;;;;0.52;0.10;;;19.30;68.60;;;;;;5104004;28;20028;-36
2021/10/27 02:54:05;;;;;;;0.25;0.25;;;19.30;68.60;;;;;;5104072;28;20122;-36
2021/10/27 02:56:31;;;;;;;0.20;0.20;;;19.30;68.60;;;;;;5103834;28;20036;-36
2021/10/27 02:58:58;;;;;;;0.20;0.10;;;19.20;68.60;;;;;;5103739;28;20020;-36
2021/10/27 03:01:24;;;;;;;0.47;0.20;;;19.20;68.60;;;;;;5104082;28;20280;-36
2021/10/27 03:03:51;;;;;;;0.13;0.10;;;19.20;68.50;;;;;;5102534;28;20024;-36
2021/10/27 03:06:18;;;;;;;0.10;0.10;;;19.20;68.60;;;;;;5103592;28;20067;-36
2021/10/27 03:08:45;;;;;;;0.30;0.10;;;19.20;68.70;;;;;;5103454;28;20055;-36
2021/10/27 03:11:13;;;;;;;0.15;0.10;;;19.10;68.70;;;;;;5103758;28;20031;-36
2021/10/27 03:13:40;;;;;;;0.17;0.13;;;19.10;68.70;;;;;;5102057;28;20135;-36
2021/10/27 03:16:06;;;;;;;0.35;0.10;;;19.10;68.80;;;;;;5103053;28;20091;-36
2021/10/27 03:18:33;;;;;;;0.10;0.10;;;19.10;68.80;;;;;;5103766;28;20073;-36
2021/10/27 03:20:59;;;;;;;0.35;0.15;;;19.10;68.90;;;;;;5102169;28;20026;-36
2021/10/27 03:23:25;;;;;;;0.35;0.20;;;19.00;68.80;;;;;;5083131;28;20059;-36
2021/10/27 03:25:52;;;;;;;0.13;0.10;;;19.00;68.80;;;;;;5081708;28;20036;-36
2021/10/27 03:28:18;;;;;;;0.45;0.10;;;19.00;68.80;;;;;;5082946;28;20021;-36
2021/10/27 03:30:44;;;;;;;0.57;0.20;;;19.00;68.90;;;;;;5082902;28;20087;-36
2021/10/27 03:33:10;;;;;;;0.65;0.20;;;19.00;68.90;;;;;;5083260;28;20710;-36
2021/10/27 03:35:36;;;;;;;0.20;0.20;;;19.00;69.00;;;;;;5090497;28;20050;-36
2021/10/27 03:38:03;;;;;;;0.40;0.20;;;19.00;68.90;;;;;;5103381;28;20047;-36
2021/10/27 03:40:29;;;;;;;0.13;0.10;;;19.00;68.90;;;;;;5102928;28;20020;-36
2021/10/27 03:42:55;;;;;;;0.30;0.20;;;18.90;68.80;;;;;;5101512;28;20039;-36
2021/10/27 03:45:21;;;;;;;0.20;0.10;;;18.90;68.90;;;;;;5103056;28;20035;-37
2021/10/27 03:47:47;;;;;;;0.38;0.20;;;18.90;69.00;;;;;;5103254;28;20111;-36
2021/10/27 03:50:14;;;;;;;0.10;0.10;;;18.90;69.00;;;;;;5102927;28;20059;-36
2021/10/27 03:52:42;;;;;;;0.63;0.17;;;18.90;69.10;;;;;;5102650;28;20024;-36
2021/10/27 03:55:08;;;;;;;0.13;0.10;;;18.90;69.10;;;;;;5101106;28;20027;-36
2021/10/27 03:57:34;;;;;;;0.30;0.20;;;18.80;69.00;;;;;;5102811;28;20054;-36
2021/10/27 04:00:01;;;;;;;0.15;0.10;;;18.80;69.10;;;;;;5102946;28;20080;-36
2021/10/27 04:02:27;;;;;;;0.77;0.20;;;18.80;69.10;;;;;;5102439;28;20038;-36
2021/10/27 04:04:53;;;;;;;3.20;0.30;;;18.80;69.10;;;;;;5102699;28;20046;-36
2021/10/27 04:07:20;;;;;;;0.20;0.15;;;18.80;69.20;;;;;;5102834;28;20043;-36
2021/10/27 04:09:46;;;;;;;0.20;0.20;;;18.80;69.20;;;;;;5102583;28;20055;-36
2021/10/27 04:12:12;;;;;;;0.22;0.20;;;18.70;69.20;;;;;;5102817;28;20050;-36
2021/10/27 04:14:38;;;;;;;0.70;0.15;;;18.70;69.20;;;;;;5102680;28;20020;-36
2021/10/27 04:17:04;;;;;;;0.20;0.20;;;18.70;69.30;;;;;;5102875;28;20097;-36
2021/10/27 04:19:32;;;;;;;0.22;0.17;;;18.70;69.30;;;;;;5102612;28;20020;-36
2021/10/27 04:21:58;;;;;;;;;;;18.70;69.30;;;;;;5101994;28;20035;-36
2021/10/27 04:24:24;;;;;;;0.50;0.25;;;18.70;69.30;;;;;;5101366;28;19904;-36
2021/10/27 04:26:51;;;;;;;0.40;0.13;;;18.60;69.30;;;;;;5102568;28;20035;-36
2021/10/27 04:29:17;;;;;;;0.38;0.35;;;18.60;69.30;;;;;;5102685;28;20054;-36
2021/10/27 04:31:44;;;;;;;0.22;0.10;;;18.60;69.30;;;;;;5102056;28;20111;-36
2021/10/27 04:34:10;;;;;;;0.10;0.10;;;18.60;69.40;;;;;;5102395;28;20020;-36
2021/10/27 04:36:36;;;;;;;0.30;0.25;;;18.60;69.50;;;;;;5102175;28;20058;-36
2021/10/27 04:39:02;;;;;;;0.10;0.10;;;18.60;69.50;;;;;;5102604;28;20031;-36
2021/10/27 04:41:29;;;;;;;0.17;0.17;;;18.50;69.50;;;;;;5084030;28;20066;-36
2021/10/27 04:43:55;;;;;;;0.22;0.10;;;18.50;69.50;;;;;;5082284;28;20024;-36
2021/10/27 04:46:21;;;;;;;0.20;0.20;;;18.50;69.50;;;;;;5082123;28;20033;-36
2021/10/27 04:48:47;;;;;;;0.10;0.10;;;18.50;69.50;;;;;;5082453;28;20069;-36
2021/10/27 04:51:13;;;;;;;0.20;0.20;;;18.50;69.50;;;;;;5093086;28;20021;-36
2021/10/27 04:53:39;;;;;;;0.40;0.20;;;18.50;69.60;;;;;;5082212;28;20021;-36
2021/10/27 04:56:06;;;;;;;0.22;0.20;;;18.50;69.60;;;;;;5081716;28;20040;-36
2021/10/27 04:58:32;;;;;;;0.95;0.30;;;18.50;69.60;;;;;;5081055;28;20040;-36
2021/10/27 05:00:58;;;;;;;0.38;0.20;;;18.50;69.70;;;;;;5081038;28;20082;-36
2021/10/27 05:03:24;;;;;;;0.25;0.20;;;18.40;69.60;;;;;;5082378;28;20543;-36
2021/10/27 05:05:54;;;;;;;0.28;0.20;;;18.40;69.60;;;;;;5091377;28;20090;-36
2021/10/27 05:08:22;;;;;;;0.32;0.13;;;18.40;69.70;;;;;;5102433;28;20020;-36
2021/10/27 05:10:50;;;;;;;0.32;0.20;;;18.40;69.70;;;;;;5102244;28;20050;-36
2021/10/27 05:13:18;;;;;;;0.25;0.20;;;18.40;69.80;;;;;;5104118;28;20098;-36
2021/10/27 05:15:46;;;;;;;0.17;0.15;;;18.40;69.80;;;;;;5105884;28;20031;-36
2021/10/27 05:18:12;;;;;;;0.15;0.13;;;18.30;69.70;;;;;;5106119;28;20526;-36
2021/10/27 05:20:38;;;;;;;0.43;0.20;;;18.30;69.80;;;;;;5104778;28;20024;-36
2021/10/27 05:23:05;;;;;;;0.15;0.10;;;18.30;69.90;;;;;;5104415;28;20024;-36
2021/10/27 05:25:31;;;;;;;0.75;0.30;;;18.30;69.90;;;;;;5105422;28;20151;-36
2021/10/27 05:27:57;;;;;;;0.25;0.20;;;18.30;69.90;;;;;;5105870;28;20035;-36
2021/10/27 05:30:24;;;;;;;0.57;0.20;;;18.30;70.00;;;;;;5106029;28;20024;-36
2021/10/27 05:32:56;;;;;;;0.30;0.20;;;18.20;70.00;;;;;;5105829;28;20028;-36
2021/10/27 05:35:22;;;;;;;0.20;0.20;;;18.20;69.90;;;;;;5105035;28;20066;-36
2021/10/27 05:37:49;;;;;;;0.20;0.20;;;18.20;69.90;;;;;;5105657;28;20034;-36
2021/10/27 05:40:15;;;;;;;0.30;0.20;;;18.20;70.00;;;;;;5105753;28;20027;-36
2021/10/27 05:42:41;;;;;;;0.25;0.15;;;18.20;70.00;;;;;;5105603;28;20032;-36
2021/10/27 05:45:09;;;;;;;0.30;0.20;;;18.20;70.00;;;;;;5105611;28;20169;-36
2021/10/27 05:47:37;;;;;;;0.10;0.10;;;18.20;70.10;;;;;;5103833;28;20035;-36
2021/10/27 05:55:36;;;;;;;0.52;0.32;;;18.10;70.10;;;;;;5105358;28;20092;-36
2021/10/27 05:58:03;;;;;;;1.48;0.30;;;18.10;70.10;;;;;;5105390;28;20024;-36
2021/10/27 06:00:30;;;;;;;0.20;0.10;;;18.10;70.30;;;;;;5103228;28;20034;-36
2021/10/27 06:02:57;;;;;;;0.23;0.23;;;18.10;70.30;;;;;;5085300;28;20025;-36
2021/10/27 06:05:23;;;;;;;0.20;0.20;;;18.10;70.30;;;;;;5090803;28;20035;-36
2021/10/27 06:07:49;;;;;;;0.20;0.20;;;18.00;70.20;;;;;;5105158;28;20437;-36
2021/10/27 06:10:20;;;;;;;0.30;0.20;;;18.00;70.30;;;;;;5105217;28;20136;-36
2021/10/27 06:12:48;;;;;;;0.28;0.20;;;18.00;70.30;;;;;;5105338;28;20077;-36
2021/10/27 06:15:14;;;;;;;0.40;0.25;;;18.00;70.30;;;;;;5105139;28;20020;-36
2021/10/27 06:17:41;;;;;;;0.28;0.20;;;18.00;70.30;;;;;;5103599;28;20042;-36
2021/10/27 06:20:07;;;;;;;0.98;0.20;;;18.00;70.30;;;;;;5105134;28;20035;-36
2021/10/27 06:22:33;;;;;;;0.28;0.20;;;18.00;70.40;;;;;;5102148;28;20052;-36
2021/10/27 06:25:00;;;;;;;0.68;0.20;;;17.90;70.40;;;;;;5104187;28;20024;-36
2021/10/27 06:27:26;;;;;;;0.20;0.20;;;17.90;70.40;;;;;;5104647;28;20040;-36
2021/10/27 06:32:33;;;;;;;0.28;0.25;;;17.90;70.40;;;;;;5097714;28;20096;-37
2021/10/27 06:35:05;;;;;;;;;;;17.90;70.50;;;;;;5087281;28;20025;-36
2021/10/27 06:48:22;;;;;;;0.50;0.30;;;17.80;70.60;;;;;;5104349;28;20131;-36
2021/10/27 06:50:48;;;;;;;0.25;0.20;;;17.80;70.60;;;;;;5104454;28;20061;-36
2021/10/27 06:53:14;;;;;;;0.45;0.30;;;17.80;70.60;;;;;;5104513;28;20028;-36
2021/10/27 06:55:40;;;;;;;0.57;0.28;;;17.80;70.80;;;;;;5104176;28;20031;-36
2021/10/27 06:58:09;;;;;;;0.22;0.22;;;17.70;70.70;;;;;;5104127;28;20032;-36
2021/10/27 07:00:41;;;;;;;1.38;0.20;;;17.70;70.70;;;;;;5101786;28;20020;-36
2021/10/27 07:16:51;;;;;;;0.45;0.30;;;17.60;70.90;;;;;;5040844;28;20075;-36
2021/10/27 07:19:18;;;;;;;0.35;0.30;;;17.60;70.90;;;;;;5040410;28;20059;-36
2021/10/27 07:21:44;;;;;;;0.52;0.20;;;17.60;70.90;;;;;;5041122;28;20547;-36
2021/10/27 07:24:10;;;;;;;0.30;0.20;;;17.60;70.90;;;;;;5041196;28;20049;-36
2021/10/27 07:26:38;;;;;;;0.30;0.30;;;17.60;71.00;;;;;;5040882;28;20037;-36
2021/10/27 07:29:04;;;;;;;;;;;17.60;71.00;;;;;;5041087;28;20029;-36
2021/10/27 07:31:31;;;;;;;0.20;0.20;;;17.60;71.00;;;;;;5041022;28;19909;-36
2021/10/27 07:34:05;;;;;;;0.82;0.43;;;17.60;71.10;;;;;;5040822;28;20041;-36
2021/10/27 07:42:00;;;;;;;0.20;0.20;;;17.50;71.10;;;;;;5040933;28;20481;-36
2021/10/27 07:44:26;;;;;;;0.55;0.20;;;17.50;71.20;;;;;;5065531;28;20028;-36
2021/10/27 07:46:53;;;;;;;0.60;0.20;;;17.50;71.20;;;;;;5085154;28;20084;-36
2021/10/27 07:49:19;;;;;;;0.32;0.20;;;17.50;71.20;;;;;;5082874;28;20032;-36
2021/10/27 07:51:45;;;;;;;0.30;0.20;;;17.40;71.20;;;;;;5089988;28;20031;-36
2021/10/27 07:54:12;;;;;;;1.40;0.10;;;17.40;71.30;;;;;;5103622;28;20112;-36
2021/10/27 07:56:39;;;;;;;0.13;0.10;;;17.40;71.30;;;;;;5103228;28;20036;-36
2021/10/27 07:59:05;;;;;;;0.90;0.20;;;17.40;71.30;;;;;;5103278;28;20432;-36
2021/10/27 08:01:31;;;;;;;0.30;0.28;;;17.40;71.30;;;;;;5103402;28;20419;-37
2021/10/27 08:03:59;;;;;;;0.30;0.20;;;17.40;71.40;;;;;;5103150;28;20048;-36
2021/10/27 08:06:25;;;;;;;0.30;0.30;;;17.40;71.30;;;;;;5102877;28;20059;-37
2021/10/27 08:08:51;;;;;;;0.28;0.15;;;17.40;72.00;;;;;;5102729;28;20060;-36
2021/10/27 08:11:18;;;;;;;0.30;0.30;;;17.40;71.40;;;;;;5103459;28;20046;-36
2021/10/27 08:13:44;;;;;;;0.20;0.20;;;17.30;71.40;;;;;;5103270;28;20027;-36
2021/10/27 08:16:10;;;;;;;1.08;0.40;;;17.30;71.40;;;;;;5102969;28;20043;-36
2021/10/27 08:18:36;;;;;;;0.25;0.25;;;17.30;71.50;;;;;;5102819;28;20047;-37
2021/10/27 08:21:02;;;;;;;0.32;0.30;;;17.30;71.50;;;;;;5103062;28;20511;-36
2021/10/27 08:23:32;;;;;;;0.20;0.20;;;17.30;71.50;;;;;;5103011;28;20050;-36
2021/10/27 08:26:02;;;;;;;0.30;0.30;;;17.30;71.50;;;;;;5103109;28;20028;-37
2021/10/27 08:28:36;;;;;;;1.13;0.22;;;17.30;71.60;;;;;;5102770;28;20042;-36
2021/10/27 08:36:00;;;;;;;0.55;0.30;;;17.20;71.60;;;;;;5112182;28;20085;-36
2021/10/27 08:38:26;;;;;;;0.95;0.28;;;17.20;71.70;;;;;;5110378;28;20023;-36
2021/10/27 08:40:53;;;;;;;0.38;0.28;;;17.20;71.70;;;;;;5104354;28;20043;-36
2021/10/27 08:43:19;;;;;;;0.23;0.23;;;17.20;71.80;;;;;;5102840;28;20024;-37
2021/10/27 08:45:45;;;;;;;0.25;0.10;;;17.10;72.30;;;;;;5102752;28;20264;-36
2021/10/27 08:48:12;;;;;;;0.55;0.30;;;17.10;71.70;;;;;;5103889;28;20044;-36
2021/10/27 08:50:38;;;;;;;;;;;17.20;71.70;;;;;;5105841;28;20016;-36
2021/10/27 08:53:05;;;;;;;0.57;0.20;;;17.10;71.70;;;;;;5106666;28;19904;-36
2021/10/27 08:55:32;;;;;;;0.40;0.30;;;17.10;71.70;;;;;;5106582;28;20058;-37
2021/10/27 08:57:58;;;;;;;0.40;0.20;;;17.10;71.80;;;;;;5106742;28;20031;-36
2021/10/27 09:00:41;;;;;;;0.65;0.30;;;17.10;71.80;;;;;;5106461;28;20039;-36
2021/10/27 09:05:49;;;;;;;0.40;0.20;;;17.10;71.90;;;;;;5106528;28;20020;-37
2021/10/27 09:33:27;;;;;;;0.35;0.30;;;17.00;71.90;;;;;;5106407;28;20602;-36
2021/10/27 09:37:26;;;;;;;0.28;0.28;;;16.90;72.10;;;;;;5104559;28;20036;-37
2021/10/27 10:05:14;;;;;;;0.30;0.30;;;16.70;72.30;;;;;;5104961;28;20035;-37
2021/10/27 10:07:41;;;;;;;0.65;0.20;;;16.70;72.40;;;;;;5105399;28;20099;-37
2021/10/27 10:10:09;;;;;;;0.23;0.23;;;16.70;72.40;;;;;;5104928;28;20058;-37
2021/10/27 10:12:42;;;;;;;0.30;0.20;;;16.70;72.40;;;;;;5105021;28;20077;-38
2021/10/27 10:15:11;;;;;;;0.30;0.20;;;16.70;72.40;;;;;;5105046;28;20071;-36
2021/10/27 10:17:41;;;;;;;0.30;0.22;;;16.70;72.40;;;;;;5105327;28;20032;-37
2021/10/27 10:20:12;;;;;;;0.57;0.30;;;16.60;72.40;;;;;;5103346;28;20020;-37
2021/10/27 10:22:39;;;;;;;0.90;0.30;;;16.70;72.50;;;;;;5083492;28;20029;-37
2021/10/27 10:25:17;;;;;;;0.40;0.28;;;16.60;72.40;;;;;;5084667;28;20028;-37
2021/10/27 10:27:43;;;;;;;;;;;16.60;72.40;;;;;;5098026;28;20032;-38
2021/10/27 10:30:31;;;;;;;0.20;0.20;;;16.60;72.50;;;;;;5104742;28;19908;-37
2021/10/27 10:33:05;;;;;;;0.50;0.30;;;16.60;72.60;;;;;;5104938;28;20028;-37
2021/10/27 10:36:15;;;;;;;0.45;0.30;;;16.60;72.50;;;;;;5104483;28;20055;-37
2021/10/27 10:41:56;;;;;;;0.40;0.40;;;16.60;72.70;;;;;;5104393;28;20036;-37
2021/10/27 10:59:31;;;;;;;0.35;0.28;;;16.50;72.70;;;;;;5104603;28;20028;-37
2021/10/27 11:23:45;;;;;;;0.65;0.32;;;16.30;72.90;;;;;;5083767;28;20055;-37
2021/10/27 11:27:09;;;;;;;0.35;0.25;;;16.30;72.80;;;;;;5083685;28;20162;-37
2021/10/27 11:40:07;;;;;;;0.28;0.20;;;16.30;73.00;;;;;;5086736;28;20024;-37
2021/10/27 11:45:38;;;;;;;0.30;0.30;;;16.30;73.00;;;;;;5103404;28;20032;-37
2021/10/27 11:48:26;;;;;;;0.40;0.30;;;16.20;73.00;;;;;;5102172;28;20045;-37
2021/10/27 11:50:53;;;;;;;0.40;0.30;;;16.20;73.00;;;;;;5103094;28;20038;-37
2021/10/27 11:53:23;;;;;;;0.30;0.25;;;16.20;73.10;;;;;;5103323;28;20032;-37
2021/10/27 11:55:49;;;;;;;0.40;0.30;;;16.20;73.10;;;;;;5103250;28;20024;-37
2021/10/27 11:58:16;;;;;;;0.40;0.30;;;16.20;73.00;;;;;;5103388;28;20031;-37
2021/10/27 12:00:44;;;;;;;0.28;0.22;;;16.20;73.10;;;;;;5101973;28;20027;-37
2021/10/27 12:03:23;;;;;;;0.35;0.30;;;16.20;73.10;;;;;;5102939;28;20092;-37
2021/10/27 12:08:37;;;;;;;0.30;0.30;;;16.20;73.20;;;;;;5102858;28;20016;-38
2021/10/27 12:14:01;;;;;;;0.40;0.30;;;16.10;73.30;;;;;;5101814;28;20065;-37
2021/10/27 12:18:56;;;;;;;0.30;0.30;;;16.10;73.30;;;;;;5103027;28;20114;-37
2021/10/27 12:21:25;;;;;;;0.38;0.30;;;16.10;73.30;;;;;;5102666;28;20020;-37
2021/10/27 12:23:51;;;;;;;0.50;0.30;;;16.10;73.30;;;;;;5102414;28;20054;-37
2021/10/27 12:26:18;;;;;;;0.68;0.40;;;16.10;73.30;;;;;;5101104;28;20056;-37
2021/10/27 12:28:44;;;;;;;0.40;0.30;;;16.10;73.30;;;;;;5082954;28;20021;-37
2021/10/27 12:31:20;;;;;;;0.50;0.30;;;16.10;73.40;;;;;;5082880;28;20040;-37
2021/10/27 12:33:47;;;;;;;0.30;0.30;;;16.10;73.30;;;;;;5064809;28;20432;-37
2021/10/27 12:36:34;;;;;;;0.45;0.30;;;16.10;73.40;;;;;;5095076;28;20040;-37
2021/10/27 12:39:08;;;;;;;1.27;0.40;;;16.00;73.30;;;;;;5103110;28;20058;-37
2021/10/27 12:41:35;;;;;;;0.82;0.35;;;16.00;73.30;;;;;;5102832;28;20269;-37
2021/10/27 12:44:25;;;;;;;0.55;0.50;;;16.00;73.40;;;;;;5102868;28;20042;-37
2021/10/27 12:47:12;;;;;;;1.35;0.30;;;16.00;73.30;;;;;;5084759;28;20033;-37
2021/10/27 12:49:40;;;;;;;0.47;0.30;;;16.00;73.40;;;;;;5082585;28;20036;-37
2021/10/27 12:52:29;;;;;;;0.40;0.25;;;16.00;73.40;;;;;;5090599;28;20056;-37
2021/10/27 12:55:28;;;;;;;0.50;0.35;;;16.00;73.50;;;;;;5102765;28;20020;-37
2021/10/27 12:57:55;;;;;;;0.55;0.38;;;16.00;73.40;;;;;;5102196;28;20044;-37
2021/10/27 13:00:30;;;;;;;0.65;0.30;;;15.90;73.40;;;;;;5102758;28;20043;-37
2021/10/27 13:03:28;;;;;;;0.40;0.40;;;15.90;73.50;;;;;;5102048;28;20020;-37
2021/10/27 13:06:04;;;;;;;1.65;0.40;;;15.90;73.50;;;;;;5102202;28;20031;-37
2021/10/27 13:13:57;;;;;;;0.40;0.25;;;15.90;73.40;;;;;;5102269;28;20021;-37
2021/10/27 13:19:12;;;;;;;1.73;0.40;;;15.90;74.20;;;;;;5082151;28;20032;-37
2021/10/27 13:32:21;;;;;;;0.45;0.40;;;15.90;73.50;;;;;;5080585;28;20556;-37
2021/10/27 13:34:48;;;;;;;0.50;0.47;;;15.90;73.50;;;;;;5081889;28;20048;-37
2021/10/27 13:37:14;;;;;;;0.50;0.40;;;15.80;73.50;;;;;;5084223;28;20041;-37
2021/10/27 13:39:41;;;;;;;0.80;0.40;;;15.80;73.50;;;;;;5085637;28;20092;-37
2021/10/27 13:42:14;;;;;;;0.50;0.50;;;15.80;73.50;;;;;;5098516;28;20295;-37
2021/10/27 13:44:56;;;;;;;0.30;0.30;;;15.80;73.50;;;;;;5105136;28;20020;-37
2021/10/27 14:09:10;;;;;;;0.40;0.40;;;15.80;73.40;;;;;;5105060;28;20170;-37
2021/10/27 14:11:57;;;;;;;0.40;0.40;;;15.80;73.50;;;;;;5105078;28;20445;-37
2021/10/27 14:14:32;;;;;;;0.88;0.50;;;15.80;73.40;;;;;;5104490;28;20040;-37
2021/10/27 14:20:25;;;;;;;0.50;0.40;;;15.80;73.40;;;;;;5062063;28;20024;-37
2021/10/27 14:47:38;;;;;;;0.90;0.50;;;15.80;73.20;;;;;;5027739;28;20037;-36
2021/10/27 15:20:35;;;;;;;0.75;0.50;;;15.80;73.00;;;;;;5060817;28;20472;-37
2021/10/27 15:23:21;;;;;;;0.88;0.50;;;15.80;73.10;;;;;;5060721;28;20025;-37
2021/10/27 15:41:52;;;;;;;0.93;0.52;;;15.90;73.00;;;;;;5060228;28;20599;-37
2021/10/27 15:44:29;;;;;;;0.60;0.40;;;15.90;73.70;;;;;;5045131;28;20037;-37
2021/10/27 15:52:25;;;;;;;1.30;0.40;;;16.00;73.20;;;;;;5094294;28;20116;-36
2021/10/27 15:54:51;;;;;;;0.77;0.52;;;16.00;73.30;;;;;;5102757;28;20024;-36
2021/10/27 15:57:18;;;;;;;0.77;0.40;;;16.00;73.30;;;;;;5102050;28;20047;-37
2021/10/27 15:59:44;;;;;;;0.40;0.30;;;16.00;73.30;;;;;;5103333;28;20030;-36
2021/10/27 16:02:11;;;;;;;0.80;0.55;;;16.00;73.30;;;;;;5101648;28;20035;-37
2021/10/27 16:04:38;;;;;;;0.52;0.40;;;16.10;73.50;;;;;;5102231;28;20031;-37
2021/10/27 16:07:07;;;;;;;;;;;16.10;73.50;;;;;;5102610;28;20032;-37
2021/10/27 16:09:40;;;;;;;1.00;0.50;;;16.10;73.60;;;;;;5102777;28;19920;-36
2021/10/27 16:12:06;;;;;;;0.80;0.50;;;16.10;73.60;;;;;;5103018;28;20043;-36
2021/10/27 16:14:33;;;;;;;0.70;0.50;;;16.20;73.80;;;;;;5095875;28;20064;-37
2021/10/27 16:16:59;;;;;;;1.08;0.70;;;16.10;73.80;;;;;;5082507;28;20044;-36
2021/10/27 16:19:25;;;;;;;0.40;0.30;;;16.20;73.90;;;;;;5082467;28;20077;-37
2021/10/27 16:21:52;;;;;;;0.77;0.50;;;16.20;74.00;;;;;;5082346;28;20104;-36
2021/10/27 16:24:18;;;;;;;0.75;0.40;;;16.20;74.10;;;;;;5082437;28;20025;-36
2021/10/27 16:26:44;;;;;;;0.50;0.40;;;16.20;74.20;;;;;;5082338;28;20032;-36
2021/10/27 16:29:10;;;;;;;0.68;0.40;;;16.30;74.50;;;;;;5082600;28;20083;-36
2021/10/27 16:31:36;;;;;;;0.50;0.40;;;16.30;74.50;;;;;;5082299;28;20040;-36
2021/10/27 16:34:03;;;;;;;0.60;0.50;;;16.30;74.60;;;;;;5087966;28;20616;-36
2021/10/27 16:36:29;;;;;;;0.90;0.40;;;16.30;74.60;;;;;;5101302;28;20126;-36
2021/10/27 16:38:56;;;;;;;0.68;0.38;;;16.40;74.90;;;;;;5102236;28;20032;-36
2021/10/27 16:41:22;;;;;;;0.53;0.33;;;16.40;74.90;;;;;;5102640;28;20145;-36
2021/10/27 16:43:48;;;;;;;0.75;0.50;;;16.40;74.90;;;;;;5102624;28;20269;-36
2021/10/27 16:46:14;;;;;;;0.43;0.30;;;16.40;75.00;;;;;;5102430;28;20043;-36
2021/10/27 16:48:41;;;;;;;0.65;0.45;;;16.50;75.20;;;;;;5102684;28;20684;-36
2021/10/27 16:51:07;;;;;;;0.85;0.40;;;16.50;75.30;;;;;;5102202;28;20035;-36
2021/10/27 16:53:33;;;;;;;0.95;0.35;;;16.50;75.20;;;;;;5100973;28;20028;-40
2021/10/27 16:55:59;;;;;;;0.43;0.40;;;16.50;75.50;;;;;;5101343;28;20043;-36
2021/10/27 16:58:28;;;;;;;0.70;0.60;;;16.60;75.90;;;;;;5102417;28;20084;-36
2021/10/27 17:00:55;;;;;;;0.93;0.40;;;16.60;75.80;;;;;;5102093;28;20115;-36
2021/10/27 17:03:21;;;;;;;0.87;0.50;;;16.60;75.90;;;;;;5098583;28;20023;-37
2021/10/27 17:05:47;;;;;;;1.20;0.40;;;16.70;76.20;;;;;;5089460;28;20024;-36
2021/10/27 17:08:16;;;;;;;1.98;0.20;;;16.70;76.10;;;;;;5102476;28;20126;-36
2021/10/27 17:10:47;;;;;;;2.20;0.40;;;16.70;76.30;;;;;;5106246;28;20044;-36
2021/10/27 17:13:14;;;;;;;1.65;0.43;;;16.80;76.50;;;;;;5106029;28;20024;-36
2021/10/27 17:15:40;;;;;;;1.05;0.40;;;16.80;76.50;;;;;;5106034;28;20081;-37
2021/10/27 17:18:07;;;;;;;2.08;0.50;;;16.80;76.50;;;;;;5106206;28;20534;-37
2021/10/27 17:20:33;;;;;;;2.63;0.50;;;16.90;76.60;;;;;;5105686;28;20028;-36
2021/10/27 17:23:00;;;;;;;1.02;0.38;;;16.90;76.70;;;;;;5105916;28;20059;-36
2021/10/27 17:25:26;;;;;;;;;;;16.90;76.60;;;;;;5106364;28;20056;-36
2021/10/27 17:27:52;;;;;;;2.05;0.30;;;17.00;76.80;;;;;;5105936;28;20474;-36
2021/10/27 17:30:19;;;;;;;0.50;0.40;;;17.00;76.60;;;;;;5105632;28;20028;-36
2021/10/27 17:32:46;;;;;;;1.50;0.50;;;17.00;76.50;;;;;;5106186;28;20028;-36